METAR Reports

 

EHEH - Eindhoven Airport, Eindhoven, NL
Distance from station: W 30km
Updated: 17/08/2018 14:25
Helder
Helder
 Wind van varies
Wind: varies 7 km/h
Temperatuur: 22°C
Dauwpunt: 11°C
Vochtigheid: 50%
Barometer: 1019 hPa
Clouds: Helder
Visibility: 10 km
2018/08/17 12:25 EHEH 171225Z AUTO VRB04KT 9999 NCD 22/11 Q1019 BLU 30006KT 9999 SCT035
EHVK - Volkel Airoprt, Volkel, NL
Distance from station: NO 30km
Updated: 17/08/2018 14:55
Gedeeltelijk bewolkt
Gedeeltelijk bewolkt
 Wind van ZW
Wind: ZW 7 km/h
Temperatuur: 23°C
Dauwpunt: 11°C
Vochtigheid: 47%
Barometer: 1019 hPa
Clouds: Gedeeltelijk bewolkt
Visibility: 10 km
Cloud details: Few Clouds 1341 m
Gedeeltelijk bewolkt 1646 m
2018/08/17 12:55 EHVK 171255Z AUTO 22004KT 9999 FEW044 SCT054 23/11 Q1019 BLU 34005KT 9999 SCT035
 
EHGR - Gilze-Rijen Airport, Gilze-Rijen, NL
Distance from station: W 43km
Updated: 17/08/2018 14:55
Meestal bewolkt
Meestal bewolkt
 Wind van WNW
Wind: WNW 13 km/h
Temperatuur: 23°C
Dauwpunt: 9°C
Vochtigheid: 41%
Barometer: 1019 hPa
Clouds: Meestal bewolkt
Visibility: 10 km
Cloud details: Meestal bewolkt 2012 m
2018/08/17 12:55 EHGR 171255Z AUTO 30007KT 250V340 9999 BKN066 23/09 Q1019 BLU 30006KT 9999 SCT030
EHBK - Maastricht-Aken Airport, Beek, NL
Distance from station: ZZO 70km
Updated: 17/08/2018 14:55
Gedeeltelijk bewolkt
Gedeeltelijk bewolkt
 Wind van N
Wind: N 11 km/h
Temperatuur: 21°C
Dauwpunt: 14°C
Vochtigheid: 64%
Barometer: 1019 hPa
Clouds: Gedeeltelijk bewolkt
Visibility: 10 km
Cloud details: Gedeeltelijk bewolkt 914 m
Gedeeltelijk bewolkt 1128 m
2018/08/17 12:55 EHBK 171255Z AUTO 36006KT 310V050 9999 SCT030 SCT037 21/14 Q1019 NOSIG
 
EHAM - Schiphol, Amsterdam, NL
Distance from station: NNW 115km
Updated: 17/08/2018 14:55
Few Clouds
Few Clouds
 Wind van W
Wind: W 17 km/h
Temperatuur: 22°C
Dauwpunt: 11°C
Vochtigheid: 50%
Barometer: 1019 hPa
Clouds: Few Clouds
Visibility: 10 km
Cloud details: Few Clouds 1372 m
2018/08/17 12:55 EHAM 171255Z 27009KT 220V330 9999 FEW045 22/11 Q1019 NOSIG